sensor_id;sensor_type;location;lat;lon;timestamp;P1;durP1;ratioP1;P2;durP2;ratioP2
76417;SDS011;65250;47.602;19.002;2023-03-01T00:01:19;19.75;;;11.02;;
76417;SDS011;65250;47.602;19.002;2023-03-01T00:03:47;21.52;;;10.82;;
76417;SDS011;65250;47.602;19.002;2023-03-01T00:06:15;17.40;;;9.65;;
76417;SDS011;65250;47.602;19.002;2023-03-01T00:08:43;16.23;;;9.60;;
76417;SDS011;65250;47.602;19.002;2023-03-01T00:13:51;15.00;;;9.00;;
76417;SDS011;65250;47.602;19.002;2023-03-01T00:16:23;17.60;;;9.60;;
76417;SDS011;65250;47.602;19.002;2023-03-01T00:18:53;18.13;;;9.57;;
76417;SDS011;65250;47.602;19.002;2023-03-01T00:21:21;18.77;;;9.10;;
76417;SDS011;65250;47.602;19.002;2023-03-01T00:23:49;18.48;;;10.32;;
76417;SDS011;65250;47.602;19.002;2023-03-01T00:26:17;19.20;;;11.07;;
76417;SDS011;65250;47.602;19.002;2023-03-01T00:28:46;19.42;;;9.82;;
76417;SDS011;65250;47.602;19.002;2023-03-01T00:31:14;21.20;;;10.65;;
76417;SDS011;65250;47.602;19.002;2023-03-01T00:33:43;19.37;;;10.27;;
76417;SDS011;65250;47.602;19.002;2023-03-01T00:36:12;18.73;;;9.73;;
76417;SDS011;65250;47.602;19.002;2023-03-01T00:38:42;20.83;;;9.93;;
76417;SDS011;65250;47.602;19.002;2023-03-01T00:41:12;18.45;;;9.13;;
76417;SDS011;65250;47.602;19.002;2023-03-01T00:43:41;18.08;;;9.98;;
76417;SDS011;65250;47.602;19.002;2023-03-01T00:46:10;16.40;;;9.63;;
76417;SDS011;65250;47.602;19.002;2023-03-01T00:48:39;21.80;;;10.35;;
76417;SDS011;65250;47.602;19.002;2023-03-01T00:51:07;19.25;;;9.50;;
76417;SDS011;65250;47.602;19.002;2023-03-01T00:53:36;23.00;;;9.82;;
76417;SDS011;65250;47.602;19.002;2023-03-01T00:56:04;19.45;;;9.57;;
76417;SDS011;65250;47.602;19.002;2023-03-01T00:58:32;18.10;;;9.70;;
76417;SDS011;65250;47.602;19.002;2023-03-01T01:01:00;20.00;;;9.57;;
76417;SDS011;65250;47.602;19.002;2023-03-01T01:03:27;18.25;;;9.05;;
76417;SDS011;65250;47.602;19.002;2023-03-01T01:05:54;15.20;;;8.75;;
76417;SDS011;65250;47.602;19.002;2023-03-01T01:08:22;16.23;;;9.30;;
76417;SDS011;65250;47.602;19.002;2023-03-01T01:10:49;18.30;;;8.53;;
76417;SDS011;65250;47.602;19.002;2023-03-01T01:13:16;14.98;;;8.38;;
76417;SDS011;65250;47.602;19.002;2023-03-01T01:15:43;16.92;;;8.73;;
76417;SDS011;65250;47.602;19.002;2023-03-01T01:18:11;15.15;;;7.60;;
76417;SDS011;65250;47.602;19.002;2023-03-01T01:20:38;13.93;;;7.93;;
76417;SDS011;65250;47.602;19.002;2023-03-01T01:23:06;11.67;;;7.00;;
76417;SDS011;65250;47.602;19.002;2023-03-01T01:25:35;14.55;;;7.13;;
76417;SDS011;65250;47.602;19.002;2023-03-01T01:28:03;12.52;;;7.00;;
76417;SDS011;65250;47.602;19.002;2023-03-01T01:30:30;13.98;;;7.30;;
76417;SDS011;65250;47.602;19.002;2023-03-01T01:32:58;12.15;;;6.65;;
76417;SDS011;65250;47.602;19.002;2023-03-01T01:35:25;12.90;;;6.43;;
76417;SDS011;65250;47.602;19.002;2023-03-01T01:37:53;11.90;;;5.90;;
76417;SDS011;65250;47.602;19.002;2023-03-01T01:40:20;11.85;;;6.43;;
76417;SDS011;65250;47.602;19.002;2023-03-01T01:42:47;11.48;;;5.78;;
76417;SDS011;65250;47.602;19.002;2023-03-01T01:45:24;9.90;;;5.32;;
76417;SDS011;65250;47.602;19.002;2023-03-01T01:47:52;12.37;;;5.83;;
76417;SDS011;65250;47.602;19.002;2023-03-01T01:50:21;11.10;;;5.82;;
76417;SDS011;65250;47.602;19.002;2023-03-01T01:52:49;13.10;;;5.90;;
76417;SDS011;65250;47.602;19.002;2023-03-01T01:55:19;14.38;;;6.00;;
76417;SDS011;65250;47.602;19.002;2023-03-01T01:57:49;10.85;;;5.68;;
76417;SDS011;65250;47.602;19.002;2023-03-01T02:00:21;12.63;;;6.20;;
76417;SDS011;65250;47.602;19.002;2023-03-01T02:02:50;12.20;;;5.80;;
76417;SDS011;65250;47.602;19.002;2023-03-01T02:05:42;10.32;;;6.13;;
76417;SDS011;65250;47.602;19.002;2023-03-01T02:08:17;12.73;;;6.35;;
76417;SDS011;65250;47.602;19.002;2023-03-01T02:10:45;11.95;;;5.80;;
76417;SDS011;65250;47.602;19.002;2023-03-01T02:13:14;12.73;;;6.17;;
76417;SDS011;65250;47.602;19.002;2023-03-01T02:15:41;11.60;;;6.75;;
76417;SDS011;65250;47.602;19.002;2023-03-01T02:18:11;13.75;;;6.82;;
76417;SDS011;65250;47.602;19.002;2023-03-01T02:23:38;9.60;;;5.35;;
76417;SDS011;65250;47.602;19.002;2023-03-01T02:28:35;10.85;;;5.75;;
76417;SDS011;65250;47.602;19.002;2023-03-01T02:31:05;10.35;;;5.50;;
76417;SDS011;65250;47.602;19.002;2023-03-01T02:33:52;11.65;;;5.53;;
76417;SDS011;65250;47.602;19.002;2023-03-01T02:36:23;10.20;;;6.07;;
76417;SDS011;65250;47.602;19.002;2023-03-01T02:38:53;12.13;;;5.63;;
76417;SDS011;65250;47.602;19.002;2023-03-01T02:41:24;10.95;;;5.78;;
76417;SDS011;65250;47.602;19.002;2023-03-01T02:43:53;10.82;;;5.70;;
76417;SDS011;65250;47.602;19.002;2023-03-01T02:46:22;10.38;;;5.38;;
76417;SDS011;65250;47.602;19.002;2023-03-01T02:48:52;11.77;;;6.22;;
76417;SDS011;65250;47.602;19.002;2023-03-01T02:51:24;11.37;;;5.80;;
76417;SDS011;65250;47.602;19.002;2023-03-01T02:53:58;12.20;;;6.05;;
76417;SDS011;65250;47.602;19.002;2023-03-01T02:56:26;10.13;;;5.45;;
76417;SDS011;65250;47.602;19.002;2023-03-01T02:58:54;8.95;;;5.25;;
76417;SDS011;65250;47.602;19.002;2023-03-01T03:01:22;11.40;;;6.40;;
76417;SDS011;65250;47.602;19.002;2023-03-01T03:03:49;12.73;;;5.90;;
76417;SDS011;65250;47.602;19.002;2023-03-01T03:06:17;11.18;;;5.75;;
76417;SDS011;65250;47.602;19.002;2023-03-01T03:08:44;10.38;;;5.20;;
76417;SDS011;65250;47.602;19.002;2023-03-01T03:11:12;11.82;;;4.97;;
76417;SDS011;65250;47.602;19.002;2023-03-01T03:13:39;10.75;;;4.80;;
76417;SDS011;65250;47.602;19.002;2023-03-01T03:16:15;9.93;;;5.30;;
76417;SDS011;65250;47.602;19.002;2023-03-01T03:18:42;11.73;;;5.50;;
76417;SDS011;65250;47.602;19.002;2023-03-01T03:21:11;10.27;;;5.38;;
76417;SDS011;65250;47.602;19.002;2023-03-01T03:23:39;12.45;;;5.80;;
76417;SDS011;65250;47.602;19.002;2023-03-01T03:26:06;11.07;;;5.43;;
76417;SDS011;65250;47.602;19.002;2023-03-01T03:28:34;10.53;;;5.57;;
76417;SDS011;65250;47.602;19.002;2023-03-01T03:31:02;9.73;;;4.93;;
76417;SDS011;65250;47.602;19.002;2023-03-01T03:33:33;10.43;;;5.57;;
76417;SDS011;65250;47.602;19.002;2023-03-01T03:36:01;11.15;;;5.20;;
76417;SDS011;65250;47.602;19.002;2023-03-01T03:38:28;10.05;;;4.93;;
76417;SDS011;65250;47.602;19.002;2023-03-01T03:41:00;8.70;;;5.03;;
76417;SDS011;65250;47.602;19.002;2023-03-01T03:43:30;9.75;;;5.13;;
76417;SDS011;65250;47.602;19.002;2023-03-01T03:45:59;8.02;;;4.90;;
76417;SDS011;65250;47.602;19.002;2023-03-01T03:48:27;9.43;;;4.80;;
76417;SDS011;65250;47.602;19.002;2023-03-01T03:50:55;10.32;;;5.43;;
76417;SDS011;65250;47.602;19.002;2023-03-01T03:53:23;9.93;;;5.07;;
76417;SDS011;65250;47.602;19.002;2023-03-01T03:55:52;8.55;;;4.72;;
76417;SDS011;65250;47.602;19.002;2023-03-01T03:58:20;8.65;;;5.03;;
76417;SDS011;65250;47.602;19.002;2023-03-01T04:00:50;10.80;;;4.85;;
76417;SDS011;65250;47.602;19.002;2023-03-01T04:03:20;8.68;;;4.68;;
76417;SDS011;65250;47.602;19.002;2023-03-01T04:05:47;8.17;;;4.40;;
76417;SDS011;65250;47.602;19.002;2023-03-01T04:08:21;8.43;;;4.20;;
76417;SDS011;65250;47.602;19.002;2023-03-01T04:10:50;10.80;;;4.55;;
76417;SDS011;65250;47.602;19.002;2023-03-01T04:13:20;10.50;;;5.00;;
76417;SDS011;65250;47.602;19.002;2023-03-01T04:15:49;11.25;;;5.25;;
76417;SDS011;65250;47.602;19.002;2023-03-01T04:18:18;11.13;;;5.17;;
76417;SDS011;65250;47.602;19.002;2023-03-01T04:20:47;10.80;;;5.55;;
76417;SDS011;65250;47.602;19.002;2023-03-01T04:23:18;9.43;;;5.10;;
76417;SDS011;65250;47.602;19.002;2023-03-01T04:25:51;10.60;;;5.63;;
76417;SDS011;65250;47.602;19.002;2023-03-01T04:28:22;11.23;;;5.60;;
76417;SDS011;65250;47.602;19.002;2023-03-01T04:30:57;11.80;;;6.33;;
76417;SDS011;65250;47.602;19.002;2023-03-01T04:33:25;10.63;;;5.57;;
76417;SDS011;65250;47.602;19.002;2023-03-01T04:35:53;10.55;;;6.28;;
76417;SDS011;65250;47.602;19.002;2023-03-01T04:38:20;11.95;;;6.60;;
76417;SDS011;65250;47.602;19.002;2023-03-01T04:40:48;15.90;;;6.45;;
76417;SDS011;65250;47.602;19.002;2023-03-01T04:43:15;13.87;;;6.43;;
76417;SDS011;65250;47.602;19.002;2023-03-01T04:45:44;13.63;;;6.70;;
76417;SDS011;65250;47.602;19.002;2023-03-01T04:48:11;12.73;;;6.88;;
76417;SDS011;65250;47.602;19.002;2023-03-01T04:50:39;14.18;;;6.55;;
76417;SDS011;65250;47.602;19.002;2023-03-01T04:53:06;11.80;;;6.78;;
76417;SDS011;65250;47.602;19.002;2023-03-01T04:55:34;10.43;;;6.60;;
76417;SDS011;65250;47.602;19.002;2023-03-01T04:58:01;15.35;;;6.63;;
76417;SDS011;65250;47.602;19.002;2023-03-01T05:00:29;10.60;;;6.28;;
76417;SDS011;65250;47.602;19.002;2023-03-01T05:02:57;12.32;;;6.65;;
76417;SDS011;65250;47.602;19.002;2023-03-01T05:05:27;10.88;;;6.10;;
76417;SDS011;65250;47.602;19.002;2023-03-01T05:08:03;13.67;;;7.10;;
76417;SDS011;65250;47.602;19.002;2023-03-01T05:10:32;15.77;;;6.80;;
76417;SDS011;65250;47.602;19.002;2023-03-01T05:13:02;11.55;;;6.40;;
76417;SDS011;65250;47.602;19.002;2023-03-01T05:15:30;13.38;;;6.88;;
76417;SDS011;65250;47.602;19.002;2023-03-01T05:17:59;14.05;;;6.80;;
76417;SDS011;65250;47.602;19.002;2023-03-01T05:20:27;10.93;;;5.90;;
76417;SDS011;65250;47.602;19.002;2023-03-01T05:22:56;10.85;;;5.63;;
76417;SDS011;65250;47.602;19.002;2023-03-01T05:25:26;14.07;;;6.15;;
76417;SDS011;65250;47.602;19.002;2023-03-01T05:27:53;12.15;;;6.50;;
76417;SDS011;65250;47.602;19.002;2023-03-01T05:30:21;10.02;;;5.82;;
76417;SDS011;65250;47.602;19.002;2023-03-01T05:32:49;12.53;;;6.20;;
76417;SDS011;65250;47.602;19.002;2023-03-01T05:35:22;12.63;;;6.35;;
76417;SDS011;65250;47.602;19.002;2023-03-01T05:37:50;12.10;;;6.43;;
76417;SDS011;65250;47.602;19.002;2023-03-01T05:40:19;13.20;;;6.13;;
76417;SDS011;65250;47.602;19.002;2023-03-01T05:42:55;12.65;;;5.97;;
76417;SDS011;65250;47.602;19.002;2023-03-01T05:45:24;12.20;;;6.23;;
76417;SDS011;65250;47.602;19.002;2023-03-01T05:47:52;14.60;;;7.18;;
76417;SDS011;65250;47.602;19.002;2023-03-01T05:50:23;12.88;;;7.25;;
76417;SDS011;65250;47.602;19.002;2023-03-01T05:52:59;12.80;;;6.30;;
76417;SDS011;65250;47.602;19.002;2023-03-01T05:55:28;12.95;;;7.28;;
76417;SDS011;65250;47.602;19.002;2023-03-01T05:57:58;10.87;;;6.20;;
76417;SDS011;65250;47.602;19.002;2023-03-01T06:00:27;13.80;;;7.28;;
76417;SDS011;65250;47.602;19.002;2023-03-01T06:02:55;11.93;;;6.38;;
76417;SDS011;65250;47.602;19.002;2023-03-01T06:05:24;10.65;;;6.15;;
76417;SDS011;65250;47.602;19.002;2023-03-01T06:07:51;13.63;;;6.68;;
76417;SDS011;65250;47.602;19.002;2023-03-01T06:10:20;11.80;;;6.20;;
76417;SDS011;65250;47.602;19.002;2023-03-01T06:12:48;12.60;;;6.47;;
76417;SDS011;65250;47.602;19.002;2023-03-01T06:15:15;18.42;;;6.95;;
76417;SDS011;65250;47.602;19.002;2023-03-01T06:17:44;13.18;;;6.22;;
76417;SDS011;65250;47.602;19.002;2023-03-01T06:22:42;11.60;;;5.77;;
76417;SDS011;65250;47.602;19.002;2023-03-01T06:28:05;13.07;;;6.50;;
76417;SDS011;65250;47.602;19.002;2023-03-01T06:30:33;16.02;;;6.93;;
76417;SDS011;65250;47.602;19.002;2023-03-01T06:33:00;15.93;;;6.85;;
76417;SDS011;65250;47.602;19.002;2023-03-01T06:35:29;17.70;;;7.30;;
76417;SDS011;65250;47.602;19.002;2023-03-01T06:37:58;12.32;;;6.75;;
76417;SDS011;65250;47.602;19.002;2023-03-01T06:40:28;16.33;;;7.07;;
76417;SDS011;65250;47.602;19.002;2023-03-01T06:42:55;14.00;;;6.43;;
76417;SDS011;65250;47.602;19.002;2023-03-01T06:45:22;15.35;;;6.30;;
76417;SDS011;65250;47.602;19.002;2023-03-01T06:47:49;13.53;;;6.67;;
76417;SDS011;65250;47.602;19.002;2023-03-01T06:50:17;13.43;;;6.82;;
76417;SDS011;65250;47.602;19.002;2023-03-01T06:52:44;12.82;;;5.93;;
76417;SDS011;65250;47.602;19.002;2023-03-01T06:55:12;12.20;;;6.40;;
76417;SDS011;65250;47.602;19.002;2023-03-01T06:57:39;17.50;;;6.15;;
76417;SDS011;65250;47.602;19.002;2023-03-01T07:00:06;15.00;;;7.07;;
76417;SDS011;65250;47.602;19.002;2023-03-01T07:02:34;13.95;;;6.43;;
76417;SDS011;65250;47.602;19.002;2023-03-01T07:05:02;11.38;;;6.00;;
76417;SDS011;65250;47.602;19.002;2023-03-01T07:07:29;14.52;;;6.35;;
76417;SDS011;65250;47.602;19.002;2023-03-01T07:09:56;14.30;;;6.70;;
76417;SDS011;65250;47.602;19.002;2023-03-01T07:12:23;12.00;;;6.73;;
76417;SDS011;65250;47.602;19.002;2023-03-01T07:14:51;11.50;;;6.53;;
76417;SDS011;65250;47.602;19.002;2023-03-01T07:17:18;12.10;;;6.35;;
76417;SDS011;65250;47.602;19.002;2023-03-01T07:19:45;11.93;;;6.38;;
76417;SDS011;65250;47.602;19.002;2023-03-01T07:22:12;19.27;;;7.30;;
76417;SDS011;65250;47.602;19.002;2023-03-01T07:24:40;16.63;;;6.87;;
76417;SDS011;65250;47.602;19.002;2023-03-01T07:27:08;12.40;;;6.78;;
76417;SDS011;65250;47.602;19.002;2023-03-01T07:29:36;16.50;;;7.45;;
76417;SDS011;65250;47.602;19.002;2023-03-01T07:32:03;15.32;;;7.72;;
76417;SDS011;65250;47.602;19.002;2023-03-01T07:34:31;14.15;;;7.85;;
76417;SDS011;65250;47.602;19.002;2023-03-01T07:36:59;12.63;;;6.73;;
76417;SDS011;65250;47.602;19.002;2023-03-01T07:39:26;18.20;;;7.93;;
76417;SDS011;65250;47.602;19.002;2023-03-01T07:41:53;13.57;;;6.72;;
76417;SDS011;65250;47.602;19.002;2023-03-01T07:44:20;13.65;;;6.90;;
76417;SDS011;65250;47.602;19.002;2023-03-01T07:46:47;13.90;;;7.05;;
76417;SDS011;65250;47.602;19.002;2023-03-01T07:49:14;14.10;;;7.07;;
76417;SDS011;65250;47.602;19.002;2023-03-01T07:51:42;12.52;;;6.57;;
76417;SDS011;65250;47.602;19.002;2023-03-01T07:54:10;13.82;;;7.40;;
76417;SDS011;65250;47.602;19.002;2023-03-01T07:56:37;11.90;;;6.45;;
76417;SDS011;65250;47.602;19.002;2023-03-01T07:59:04;13.00;;;7.07;;
76417;SDS011;65250;47.602;19.002;2023-03-01T08:01:31;12.23;;;6.67;;
76417;SDS011;65250;47.602;19.002;2023-03-01T08:03:58;14.45;;;7.13;;
76417;SDS011;65250;47.602;19.002;2023-03-01T08:06:25;13.90;;;6.72;;
76417;SDS011;65250;47.602;19.002;2023-03-01T08:08:53;11.93;;;5.13;;
76417;SDS011;65250;47.602;19.002;2023-03-01T08:11:23;12.48;;;6.15;;
76417;SDS011;65250;47.602;19.002;2023-03-01T08:13:50;10.40;;;5.23;;
76417;SDS011;65250;47.602;19.002;2023-03-01T08:16:19;12.70;;;6.10;;
76417;SDS011;65250;47.602;19.002;2023-03-01T08:18:46;10.77;;;4.97;;
76417;SDS011;65250;47.602;19.002;2023-03-01T08:21:15;11.98;;;5.43;;
76417;SDS011;65250;47.602;19.002;2023-03-01T08:23:43;9.00;;;5.82;;
76417;SDS011;65250;47.602;19.002;2023-03-01T08:26:12;7.87;;;4.90;;
76417;SDS011;65250;47.602;19.002;2023-03-01T08:28:42;10.40;;;5.47;;
76417;SDS011;65250;47.602;19.002;2023-03-01T08:31:13;9.57;;;4.90;;
76417;SDS011;65250;47.602;19.002;2023-03-01T08:33:45;9.30;;;4.70;;
76417;SDS011;65250;47.602;19.002;2023-03-01T08:36:17;9.45;;;4.72;;
76417;SDS011;65250;47.602;19.002;2023-03-01T08:38:45;11.73;;;5.27;;
76417;SDS011;65250;47.602;19.002;2023-03-01T08:41:12;8.90;;;5.28;;
76417;SDS011;65250;47.602;19.002;2023-03-01T08:43:40;9.07;;;4.30;;
76417;SDS011;65250;47.602;19.002;2023-03-01T08:46:07;8.70;;;4.85;;
76417;SDS011;65250;47.602;19.002;2023-03-01T08:48:35;8.52;;;4.20;;
76417;SDS011;65250;47.602;19.002;2023-03-01T08:51:09;8.23;;;4.60;;
76417;SDS011;65250;47.602;19.002;2023-03-01T08:53:41;6.93;;;4.40;;
76417;SDS011;65250;47.602;19.002;2023-03-01T08:56:09;7.93;;;4.57;;
76417;SDS011;65250;47.602;19.002;2023-03-01T08:58:37;7.32;;;4.40;;
76417;SDS011;65250;47.602;19.002;2023-03-01T09:01:08;13.60;;;5.80;;
76417;SDS011;65250;47.602;19.002;2023-03-01T09:03:36;8.27;;;4.83;;
76417;SDS011;65250;47.602;19.002;2023-03-01T09:06:04;8.77;;;4.65;;
76417;SDS011;65250;47.602;19.002;2023-03-01T09:08:33;6.28;;;4.22;;
76417;SDS011;65250;47.602;19.002;2023-03-01T09:11:02;7.40;;;4.80;;
76417;SDS011;65250;47.602;19.002;2023-03-01T09:13:30;6.95;;;4.60;;
76417;SDS011;65250;47.602;19.002;2023-03-01T09:15:58;11.90;;;7.47;;
76417;SDS011;65250;47.602;19.002;2023-03-01T09:18:25;10.02;;;4.93;;
76417;SDS011;65250;47.602;19.002;2023-03-01T09:21:02;8.93;;;5.10;;
76417;SDS011;65250;47.602;19.002;2023-03-01T09:23:43;9.55;;;5.30;;
76417;SDS011;65250;47.602;19.002;2023-03-01T09:26:12;9.57;;;6.03;;
76417;SDS011;65250;47.602;19.002;2023-03-01T09:28:42;9.90;;;6.20;;
76417;SDS011;65250;47.602;19.002;2023-03-01T09:31:11;9.35;;;4.65;;
76417;SDS011;65250;47.602;19.002;2023-03-01T09:33:45;13.43;;;5.63;;
76417;SDS011;65250;47.602;19.002;2023-03-01T09:36:15;9.55;;;5.85;;
76417;SDS011;65250;47.602;19.002;2023-03-01T09:38:44;11.32;;;6.32;;
76417;SDS011;65250;47.602;19.002;2023-03-01T09:41:22;16.83;;;6.00;;
76417;SDS011;65250;47.602;19.002;2023-03-01T09:46:42;7.50;;;5.47;;
76417;SDS011;65250;47.602;19.002;2023-03-01T09:49:21;11.18;;;6.20;;
76417;SDS011;65250;47.602;19.002;2023-03-01T09:51:57;10.23;;;6.13;;
76417;SDS011;65250;47.602;19.002;2023-03-01T09:54:38;10.03;;;6.00;;
76417;SDS011;65250;47.602;19.002;2023-03-01T09:57:06;10.02;;;6.20;;
76417;SDS011;65250;47.602;19.002;2023-03-01T09:59:47;12.68;;;6.70;;
76417;SDS011;65250;47.602;19.002;2023-03-01T10:05:09;12.32;;;6.60;;
76417;SDS011;65250;47.602;19.002;2023-03-01T10:08:01;11.47;;;6.60;;
76417;SDS011;65250;47.602;19.002;2023-03-01T10:10:37;13.82;;;7.20;;
76417;SDS011;65250;47.602;19.002;2023-03-01T10:15:44;10.20;;;6.55;;
76417;SDS011;65250;47.602;19.002;2023-03-01T10:18:17;9.52;;;6.65;;
76417;SDS011;65250;47.602;19.002;2023-03-01T10:20:55;12.00;;;6.50;;
76417;SDS011;65250;47.602;19.002;2023-03-01T10:23:25;9.15;;;6.22;;
76417;SDS011;65250;47.602;19.002;2023-03-01T10:28:36;12.77;;;6.65;;
76417;SDS011;65250;47.602;19.002;2023-03-01T12:08:20;11.82;;;6.00;;
76417;SDS011;65250;47.602;19.002;2023-03-01T12:24:36;15.10;;;5.05;;
76417;SDS011;65250;47.602;19.002;2023-03-01T12:33:12;7.60;;;5.00;;
76417;SDS011;65250;47.602;19.002;2023-03-01T12:36:15;8.18;;;4.97;;
76417;SDS011;65250;47.602;19.002;2023-03-01T12:44:30;8.00;;;4.32;;
76417;SDS011;65250;47.602;19.002;2023-03-01T12:50:00;6.88;;;4.95;;
76417;SDS011;65250;47.602;19.002;2023-03-01T12:52:38;13.32;;;4.60;;
76417;SDS011;65250;47.602;19.002;2023-03-01T12:55:08;8.02;;;4.25;;
76417;SDS011;65250;47.602;19.002;2023-03-01T12:58:17;8.60;;;4.68;;
76417;SDS011;65250;47.602;19.002;2023-03-01T13:03:35;6.72;;;4.40;;
76417;SDS011;65250;47.602;19.002;2023-03-01T13:06:18;10.15;;;5.72;;
76417;SDS011;65250;47.602;19.002;2023-03-01T13:09:02;7.38;;;4.80;;
76417;SDS011;65250;47.602;19.002;2023-03-01T13:11:33;7.07;;;4.07;;
76417;SDS011;65250;47.602;19.002;2023-03-01T13:16:48;9.43;;;4.75;;
76417;SDS011;65250;47.602;19.002;2023-03-01T13:19:17;9.50;;;4.30;;
76417;SDS011;65250;47.602;19.002;2023-03-01T13:21:49;10.65;;;3.95;;
76417;SDS011;65250;47.602;19.002;2023-03-01T13:24:37;5.00;;;4.40;;
76417;SDS011;65250;47.602;19.002;2023-03-01T13:29:49;14.13;;;4.93;;
76417;SDS011;65250;47.602;19.002;2023-03-01T13:37:45;7.30;;;4.97;;
76417;SDS011;65250;47.602;19.002;2023-03-01T13:42:50;8.65;;;5.00;;
76417;SDS011;65250;47.602;19.002;2023-03-01T13:45:36;7.03;;;5.60;;
76417;SDS011;65250;47.602;19.002;2023-03-01T13:50:45;7.15;;;5.13;;
76417;SDS011;65250;47.602;19.002;2023-03-01T13:53:17;13.90;;;5.70;;
76417;SDS011;65250;47.602;19.002;2023-03-01T13:55:51;8.20;;;5.25;;
76417;SDS011;65250;47.602;19.002;2023-03-01T13:58:25;7.22;;;5.00;;
76417;SDS011;65250;47.602;19.002;2023-03-01T14:01:03;7.35;;;5.28;;
76417;SDS011;65250;47.602;19.002;2023-03-01T14:03:33;6.47;;;5.13;;
76417;SDS011;65250;47.602;19.002;2023-03-01T14:06:07;10.47;;;5.03;;
76417;SDS011;65250;47.602;19.002;2023-03-01T14:08:47;6.70;;;5.13;;
76417;SDS011;65250;47.602;19.002;2023-03-01T14:11:42;9.60;;;4.68;;
76417;SDS011;65250;47.602;19.002;2023-03-01T14:19:48;8.43;;;5.10;;
76417;SDS011;65250;47.602;19.002;2023-03-01T14:22:25;6.28;;;5.22;;
76417;SDS011;65250;47.602;19.002;2023-03-01T14:24:56;10.75;;;4.90;;
76417;SDS011;65250;47.602;19.002;2023-03-01T14:27:35;12.85;;;4.60;;
76417;SDS011;65250;47.602;19.002;2023-03-01T14:30:17;6.32;;;4.13;;
76417;SDS011;65250;47.602;19.002;2023-03-01T14:33:17;9.97;;;4.90;;
76417;SDS011;65250;47.602;19.002;2023-03-01T14:38:36;7.97;;;5.28;;
76417;SDS011;65250;47.602;19.002;2023-03-01T14:41:08;8.40;;;5.13;;
76417;SDS011;65250;47.602;19.002;2023-03-01T14:44:01;6.90;;;5.32;;
76417;SDS011;65250;47.602;19.002;2023-03-01T14:46:35;5.23;;;4.73;;
76417;SDS011;65250;47.602;19.002;2023-03-01T14:49:04;6.70;;;4.82;;
76417;SDS011;65250;47.602;19.002;2023-03-01T14:51:49;15.98;;;4.63;;
76417;SDS011;65250;47.602;19.002;2023-03-01T14:54:21;7.45;;;4.50;;
76417;SDS011;65250;47.602;19.002;2023-03-01T14:56:53;5.97;;;4.47;;
76417;SDS011;65250;47.602;19.002;2023-03-01T14:59:22;5.43;;;4.57;;
76417;SDS011;65250;47.602;19.002;2023-03-01T15:01:50;12.85;;;4.38;;
76417;SDS011;65250;47.602;19.002;2023-03-01T15:04:19;6.55;;;4.32;;
76417;SDS011;65250;47.602;19.002;2023-03-01T15:06:47;7.32;;;4.30;;
76417;SDS011;65250;47.602;19.002;2023-03-01T15:09:17;6.13;;;3.88;;
76417;SDS011;65250;47.602;19.002;2023-03-01T15:11:45;6.47;;;4.23;;
76417;SDS011;65250;47.602;19.002;2023-03-01T15:14:25;7.57;;;4.70;;
76417;SDS011;65250;47.602;19.002;2023-03-01T15:16:53;5.88;;;3.83;;
76417;SDS011;65250;47.602;19.002;2023-03-01T15:19:21;8.43;;;4.13;;
76417;SDS011;65250;47.602;19.002;2023-03-01T15:21:50;6.70;;;4.13;;
76417;SDS011;65250;47.602;19.002;2023-03-01T15:24:20;5.80;;;3.47;;
76417;SDS011;65250;47.602;19.002;2023-03-01T15:26:51;7.00;;;3.85;;
76417;SDS011;65250;47.602;19.002;2023-03-01T15:29:22;5.68;;;3.78;;
76417;SDS011;65250;47.602;19.002;2023-03-01T15:34:39;10.18;;;3.83;;
76417;SDS011;65250;47.602;19.002;2023-03-01T15:37:35;6.63;;;3.33;;
76417;SDS011;65250;47.602;19.002;2023-03-01T15:40:25;4.65;;;3.75;;
76417;SDS011;65250;47.602;19.002;2023-03-01T15:43:04;8.45;;;3.95;;
76417;SDS011;65250;47.602;19.002;2023-03-01T15:45:33;5.65;;;3.80;;
76417;SDS011;65250;47.602;19.002;2023-03-01T15:48:15;6.78;;;3.30;;
76417;SDS011;65250;47.602;19.002;2023-03-01T15:50:53;7.13;;;3.47;;
76417;SDS011;65250;47.602;19.002;2023-03-01T15:53:21;9.77;;;4.30;;
76417;SDS011;65250;47.602;19.002;2023-03-01T15:55:48;4.75;;;3.25;;
76417;SDS011;65250;47.602;19.002;2023-03-01T15:58:18;6.57;;;3.47;;
76417;SDS011;65250;47.602;19.002;2023-03-01T16:00:49;8.40;;;3.80;;
76417;SDS011;65250;47.602;19.002;2023-03-01T16:03:28;8.57;;;3.83;;
76417;SDS011;65250;47.602;19.002;2023-03-01T16:05:55;8.48;;;3.97;;
76417;SDS011;65250;47.602;19.002;2023-03-01T16:08:23;7.03;;;3.30;;
76417;SDS011;65250;47.602;19.002;2023-03-01T16:10:51;11.00;;;4.00;;
76417;SDS011;65250;47.602;19.002;2023-03-01T16:13:18;9.32;;;3.25;;
76417;SDS011;65250;47.602;19.002;2023-03-01T16:15:46;8.10;;;3.50;;
76417;SDS011;65250;47.602;19.002;2023-03-01T16:18:13;5.00;;;3.05;;
76417;SDS011;65250;47.602;19.002;2023-03-01T16:20:41;6.07;;;3.08;;
76417;SDS011;65250;47.602;19.002;2023-03-01T16:23:10;7.32;;;3.38;;
76417;SDS011;65250;47.602;19.002;2023-03-01T16:25:38;5.93;;;3.50;;
76417;SDS011;65250;47.602;19.002;2023-03-01T16:28:05;4.60;;;2.70;;
76417;SDS011;65250;47.602;19.002;2023-03-01T16:30:36;9.70;;;3.53;;
76417;SDS011;65250;47.602;19.002;2023-03-01T16:33:05;14.82;;;3.70;;
76417;SDS011;65250;47.602;19.002;2023-03-01T16:35:55;6.20;;;2.90;;
76417;SDS011;65250;47.602;19.002;2023-03-01T16:38:23;10.68;;;3.58;;
76417;SDS011;65250;47.602;19.002;2023-03-01T16:40:51;11.73;;;3.10;;
76417;SDS011;65250;47.602;19.002;2023-03-01T16:43:19;6.22;;;2.90;;
76417;SDS011;65250;47.602;19.002;2023-03-01T16:45:46;17.02;;;4.03;;
76417;SDS011;65250;47.602;19.002;2023-03-01T16:48:14;7.43;;;3.55;;
76417;SDS011;65250;47.602;19.002;2023-03-01T16:50:42;12.88;;;3.80;;
76417;SDS011;65250;47.602;19.002;2023-03-01T16:53:10;9.27;;;4.20;;
76417;SDS011;65250;47.602;19.002;2023-03-01T16:55:38;5.75;;;3.67;;
76417;SDS011;65250;47.602;19.002;2023-03-01T16:58:12;10.45;;;4.22;;
76417;SDS011;65250;47.602;19.002;2023-03-01T17:00:39;8.95;;;3.85;;
76417;SDS011;65250;47.602;19.002;2023-03-01T17:03:06;10.82;;;4.05;;
76417;SDS011;65250;47.602;19.002;2023-03-01T17:05:34;11.50;;;3.63;;
76417;SDS011;65250;47.602;19.002;2023-03-01T17:08:02;10.50;;;3.67;;
76417;SDS011;65250;47.602;19.002;2023-03-01T17:10:29;6.53;;;3.67;;
76417;SDS011;65250;47.602;19.002;2023-03-01T17:12:57;11.13;;;4.28;;
76417;SDS011;65250;47.602;19.002;2023-03-01T17:15:24;8.88;;;3.90;;
76417;SDS011;65250;47.602;19.002;2023-03-01T17:17:51;10.40;;;3.60;;
76417;SDS011;65250;47.602;19.002;2023-03-01T17:20:19;10.77;;;3.65;;
76417;SDS011;65250;47.602;19.002;2023-03-01T17:22:47;8.50;;;3.90;;
76417;SDS011;65250;47.602;19.002;2023-03-01T17:25:14;7.88;;;4.35;;
76417;SDS011;65250;47.602;19.002;2023-03-01T17:27:42;9.18;;;5.78;;
76417;SDS011;65250;47.602;19.002;2023-03-01T17:30:11;10.13;;;5.67;;
76417;SDS011;65250;47.602;19.002;2023-03-01T17:32:40;18.75;;;7.60;;
76417;SDS011;65250;47.602;19.002;2023-03-01T17:35:08;20.92;;;9.48;;
76417;SDS011;65250;47.602;19.002;2023-03-01T17:37:38;25.75;;;12.38;;
76417;SDS011;65250;47.602;19.002;2023-03-01T17:40:06;28.25;;;11.60;;
76417;SDS011;65250;47.602;19.002;2023-03-01T17:42:33;29.53;;;13.60;;
76417;SDS011;65250;47.602;19.002;2023-03-01T17:45:01;29.58;;;15.45;;